sensor_id;sensor_type;location;lat;lon;timestamp;P1;durP1;ratioP1;P2;durP2;ratioP2
6019;SDS011;3038;51.122;6.840;2022-10-17T00:00:16;10.73;;;9.63;;
6019;SDS011;3038;51.122;6.840;2022-10-17T00:02:41;12.20;;;10.73;;
6019;SDS011;3038;51.122;6.840;2022-10-17T00:05:06;9.90;;;9.10;;
6019;SDS011;3038;51.122;6.840;2022-10-17T00:07:32;10.57;;;9.40;;
6019;SDS011;3038;51.122;6.840;2022-10-17T00:09:57;9.90;;;9.07;;
6019;SDS011;3038;51.122;6.840;2022-10-17T00:12:23;10.30;;;9.30;;
6019;SDS011;3038;51.122;6.840;2022-10-17T00:14:48;9.53;;;8.73;;
6019;SDS011;3038;51.122;6.840;2022-10-17T00:17:14;23.47;;;10.30;;
6019;SDS011;3038;51.122;6.840;2022-10-17T00:19:39;11.83;;;9.30;;
6019;SDS011;3038;51.122;6.840;2022-10-17T00:22:06;9.83;;;9.03;;
6019;SDS011;3038;51.122;6.840;2022-10-17T00:24:31;10.73;;;9.33;;
6019;SDS011;3038;51.122;6.840;2022-10-17T00:26:56;8.93;;;8.13;;
6019;SDS011;3038;51.122;6.840;2022-10-17T00:29:22;8.67;;;7.97;;
6019;SDS011;3038;51.122;6.840;2022-10-17T00:31:47;11.20;;;8.77;;
6019;SDS011;3038;51.122;6.840;2022-10-17T00:34:13;19.10;;;10.00;;
6019;SDS011;3038;51.122;6.840;2022-10-17T00:36:38;13.47;;;8.70;;
6019;SDS011;3038;51.122;6.840;2022-10-17T00:39:04;9.67;;;8.73;;
6019;SDS011;3038;51.122;6.840;2022-10-17T00:41:31;11.33;;;9.53;;
6019;SDS011;3038;51.122;6.840;2022-10-17T00:46:26;8.47;;;7.87;;
6019;SDS011;3038;51.122;6.840;2022-10-17T00:48:57;8.23;;;7.60;;
6019;SDS011;3038;51.122;6.840;2022-10-17T00:51:42;9.90;;;8.20;;
6019;SDS011;3038;51.122;6.840;2022-10-17T00:54:10;8.77;;;8.07;;
6019;SDS011;3038;51.122;6.840;2022-10-17T00:56:38;11.23;;;8.30;;
6019;SDS011;3038;51.122;6.840;2022-10-17T00:59:04;9.43;;;8.53;;
6019;SDS011;3038;51.122;6.840;2022-10-17T01:01:32;10.73;;;8.60;;
6019;SDS011;3038;51.122;6.840;2022-10-17T01:03:58;8.83;;;8.13;;
6019;SDS011;3038;51.122;6.840;2022-10-17T01:06:24;8.77;;;8.07;;
6019;SDS011;3038;51.122;6.840;2022-10-17T01:08:49;20.90;;;9.10;;
6019;SDS011;3038;51.122;6.840;2022-10-17T01:14:23;10.23;;;8.50;;
6019;SDS011;3038;51.122;6.840;2022-10-17T01:17:08;10.70;;;9.60;;
6019;SDS011;3038;51.122;6.840;2022-10-17T01:22:46;8.23;;;7.40;;
6019;SDS011;3038;51.122;6.840;2022-10-17T01:25:22;9.27;;;8.37;;
6019;SDS011;3038;51.122;6.840;2022-10-17T01:33:39;8.20;;;7.40;;
6019;SDS011;3038;51.122;6.840;2022-10-17T01:36:32;10.27;;;9.30;;
6019;SDS011;3038;51.122;6.840;2022-10-17T01:42:01;8.77;;;7.97;;
6019;SDS011;3038;51.122;6.840;2022-10-17T01:44:41;9.40;;;8.43;;
6019;SDS011;3038;51.122;6.840;2022-10-17T01:47:29;10.77;;;9.70;;
6019;SDS011;3038;51.122;6.840;2022-10-17T01:49:59;9.53;;;8.60;;
6019;SDS011;3038;51.122;6.840;2022-10-17T01:52:34;8.33;;;7.63;;
6019;SDS011;3038;51.122;6.840;2022-10-17T01:55:10;9.10;;;8.30;;
6019;SDS011;3038;51.122;6.840;2022-10-17T01:57:40;8.43;;;7.33;;
6019;SDS011;3038;51.122;6.840;2022-10-17T02:00:10;9.23;;;8.43;;
6019;SDS011;3038;51.122;6.840;2022-10-17T02:02:40;8.83;;;7.93;;
6019;SDS011;3038;51.122;6.840;2022-10-17T02:05:07;9.50;;;8.63;;
6019;SDS011;3038;51.122;6.840;2022-10-17T02:07:32;8.13;;;7.33;;
6019;SDS011;3038;51.122;6.840;2022-10-17T02:09:58;9.30;;;8.40;;
6019;SDS011;3038;51.122;6.840;2022-10-17T02:12:34;8.23;;;7.57;;
6019;SDS011;3038;51.122;6.840;2022-10-17T02:20:40;8.40;;;7.70;;
6019;SDS011;3038;51.122;6.840;2022-10-17T02:26:34;9.37;;;8.30;;
6019;SDS011;3038;51.122;6.840;2022-10-17T02:29:16;10.00;;;8.17;;
6019;SDS011;3038;51.122;6.840;2022-10-17T02:31:47;8.87;;;8.07;;
6019;SDS011;3038;51.122;6.840;2022-10-17T02:34:20;8.30;;;7.60;;
6019;SDS011;3038;51.122;6.840;2022-10-17T02:36:52;8.97;;;8.20;;
6019;SDS011;3038;51.122;6.840;2022-10-17T02:39:22;12.73;;;8.77;;
6019;SDS011;3038;51.122;6.840;2022-10-17T02:41:49;9.00;;;7.90;;
6019;SDS011;3038;51.122;6.840;2022-10-17T02:44:16;9.67;;;8.53;;
6019;SDS011;3038;51.122;6.840;2022-10-17T02:46:44;8.03;;;7.27;;
6019;SDS011;3038;51.122;6.840;2022-10-17T02:49:24;10.23;;;9.23;;
6019;SDS011;3038;51.122;6.840;2022-10-17T02:52:01;8.67;;;7.97;;
6019;SDS011;3038;51.122;6.840;2022-10-17T02:54:36;9.70;;;7.87;;
6019;SDS011;3038;51.122;6.840;2022-10-17T02:57:25;8.70;;;7.77;;
6019;SDS011;3038;51.122;6.840;2022-10-17T02:59:56;9.23;;;8.33;;
6019;SDS011;3038;51.122;6.840;2022-10-17T03:02:24;16.20;;;8.60;;
6019;SDS011;3038;51.122;6.840;2022-10-17T03:04:50;9.37;;;8.50;;
6019;SDS011;3038;51.122;6.840;2022-10-17T03:07:15;12.60;;;9.03;;
6019;SDS011;3038;51.122;6.840;2022-10-17T03:09:41;7.83;;;7.20;;
6019;SDS011;3038;51.122;6.840;2022-10-17T03:12:06;8.50;;;7.80;;
6019;SDS011;3038;51.122;6.840;2022-10-17T03:14:31;8.23;;;7.63;;
6019;SDS011;3038;51.122;6.840;2022-10-17T03:16:57;8.80;;;8.00;;
6019;SDS011;3038;51.122;6.840;2022-10-17T03:19:22;8.60;;;7.70;;
6019;SDS011;3038;51.122;6.840;2022-10-17T03:21:48;8.37;;;7.67;;
6019;SDS011;3038;51.122;6.840;2022-10-17T03:24:13;10.00;;;8.10;;
6019;SDS011;3038;51.122;6.840;2022-10-17T03:26:38;10.93;;;7.77;;
6019;SDS011;3038;51.122;6.840;2022-10-17T03:29:04;8.47;;;7.57;;
6019;SDS011;3038;51.122;6.840;2022-10-17T03:31:29;8.97;;;8.10;;
6019;SDS011;3038;51.122;6.840;2022-10-17T03:33:55;8.53;;;7.83;;
6019;SDS011;3038;51.122;6.840;2022-10-17T03:36:20;8.90;;;8.00;;
6019;SDS011;3038;51.122;6.840;2022-10-17T03:38:45;9.90;;;9.10;;
6019;SDS011;3038;51.122;6.840;2022-10-17T03:41:12;9.43;;;7.20;;
6019;SDS011;3038;51.122;6.840;2022-10-17T03:43:37;7.50;;;6.83;;
6019;SDS011;3038;51.122;6.840;2022-10-17T03:46:04;8.57;;;7.87;;
6019;SDS011;3038;51.122;6.840;2022-10-17T03:48:30;7.97;;;7.27;;
6019;SDS011;3038;51.122;6.840;2022-10-17T03:51:14;8.73;;;7.97;;
6019;SDS011;3038;51.122;6.840;2022-10-17T03:53:40;8.97;;;8.17;;
6019;SDS011;3038;51.122;6.840;2022-10-17T03:56:24;8.40;;;7.70;;
6019;SDS011;3038;51.122;6.840;2022-10-17T03:58:50;7.93;;;6.77;;
6019;SDS011;3038;51.122;6.840;2022-10-17T04:01:16;7.80;;;7.10;;
6019;SDS011;3038;51.122;6.840;2022-10-17T04:03:42;8.50;;;7.00;;
6019;SDS011;3038;51.122;6.840;2022-10-17T04:06:10;8.30;;;7.60;;
6019;SDS011;3038;51.122;6.840;2022-10-17T04:08:36;8.10;;;7.50;;
6019;SDS011;3038;51.122;6.840;2022-10-17T04:11:02;7.50;;;6.90;;
6019;SDS011;3038;51.122;6.840;2022-10-17T04:13:30;9.33;;;7.10;;
6019;SDS011;3038;51.122;6.840;2022-10-17T04:15:56;9.37;;;8.07;;
6019;SDS011;3038;51.122;6.840;2022-10-17T04:18:24;7.50;;;6.90;;
6019;SDS011;3038;51.122;6.840;2022-10-17T04:20:50;8.90;;;7.53;;
6019;SDS011;3038;51.122;6.840;2022-10-17T04:23:16;8.60;;;7.87;;
6019;SDS011;3038;51.122;6.840;2022-10-17T04:25:41;8.63;;;7.30;;
6019;SDS011;3038;51.122;6.840;2022-10-17T04:28:07;7.63;;;6.87;;
6019;SDS011;3038;51.122;6.840;2022-10-17T04:30:32;9.13;;;7.90;;
6019;SDS011;3038;51.122;6.840;2022-10-17T04:32:58;9.20;;;7.40;;
6019;SDS011;3038;51.122;6.840;2022-10-17T04:35:23;12.80;;;7.77;;
6019;SDS011;3038;51.122;6.840;2022-10-17T04:37:48;8.77;;;7.30;;
6019;SDS011;3038;51.122;6.840;2022-10-17T04:40:14;8.37;;;7.77;;
6019;SDS011;3038;51.122;6.840;2022-10-17T04:42:39;10.17;;;9.27;;
6019;SDS011;3038;51.122;6.840;2022-10-17T04:45:05;9.67;;;7.53;;
6019;SDS011;3038;51.122;6.840;2022-10-17T04:47:30;12.03;;;8.53;;
6019;SDS011;3038;51.122;6.840;2022-10-17T04:49:56;9.07;;;7.57;;
6019;SDS011;3038;51.122;6.840;2022-10-17T04:52:21;8.27;;;7.47;;
6019;SDS011;3038;51.122;6.840;2022-10-17T04:54:46;7.63;;;6.77;;
6019;SDS011;3038;51.122;6.840;2022-10-17T04:57:12;8.60;;;7.70;;
6019;SDS011;3038;51.122;6.840;2022-10-17T04:59:37;7.90;;;7.20;;
6019;SDS011;3038;51.122;6.840;2022-10-17T05:02:03;7.87;;;7.00;;
6019;SDS011;3038;51.122;6.840;2022-10-17T05:04:28;8.40;;;7.43;;
6019;SDS011;3038;51.122;6.840;2022-10-17T05:06:53;8.13;;;7.40;;
6019;SDS011;3038;51.122;6.840;2022-10-17T05:09:19;8.00;;;7.17;;
6019;SDS011;3038;51.122;6.840;2022-10-17T05:11:44;8.17;;;7.47;;
6019;SDS011;3038;51.122;6.840;2022-10-17T05:14:09;7.53;;;6.63;;
6019;SDS011;3038;51.122;6.840;2022-10-17T05:16:35;8.03;;;7.33;;
6019;SDS011;3038;51.122;6.840;2022-10-17T05:19:00;7.70;;;7.00;;
6019;SDS011;3038;51.122;6.840;2022-10-17T05:21:26;8.07;;;7.23;;
6019;SDS011;3038;51.122;6.840;2022-10-17T05:23:53;10.00;;;8.00;;
6019;SDS011;3038;51.122;6.840;2022-10-17T05:26:19;7.83;;;7.17;;
6019;SDS011;3038;51.122;6.840;2022-10-17T05:28:44;9.40;;;8.50;;
6019;SDS011;3038;51.122;6.840;2022-10-17T05:31:10;8.53;;;7.80;;
6019;SDS011;3038;51.122;6.840;2022-10-17T05:33:36;6.97;;;6.33;;
6019;SDS011;3038;51.122;6.840;2022-10-17T05:36:03;7.60;;;6.60;;
6019;SDS011;3038;51.122;6.840;2022-10-17T05:38:29;7.63;;;6.93;;
6019;SDS011;3038;51.122;6.840;2022-10-17T05:40:58;7.77;;;6.80;;
6019;SDS011;3038;51.122;6.840;2022-10-17T05:43:24;8.10;;;7.40;;
6019;SDS011;3038;51.122;6.840;2022-10-17T05:45:50;12.07;;;7.00;;
6019;SDS011;3038;51.122;6.840;2022-10-17T05:48:16;8.93;;;8.10;;
6019;SDS011;3038;51.122;6.840;2022-10-17T05:50:42;9.03;;;8.13;;
6019;SDS011;3038;51.122;6.840;2022-10-17T05:53:08;7.37;;;6.77;;
6019;SDS011;3038;51.122;6.840;2022-10-17T05:55:34;8.00;;;7.17;;
6019;SDS011;3038;51.122;6.840;2022-10-17T05:57:59;7.40;;;6.70;;
6019;SDS011;3038;51.122;6.840;2022-10-17T06:00:25;8.03;;;7.27;;
6019;SDS011;3038;51.122;6.840;2022-10-17T06:02:51;9.90;;;7.30;;
6019;SDS011;3038;51.122;6.840;2022-10-17T06:05:16;8.30;;;7.53;;
6019;SDS011;3038;51.122;6.840;2022-10-17T06:07:41;8.10;;;7.20;;
6019;SDS011;3038;51.122;6.840;2022-10-17T06:10:07;7.37;;;6.50;;
6019;SDS011;3038;51.122;6.840;2022-10-17T06:12:33;10.87;;;7.23;;
6019;SDS011;3038;51.122;6.840;2022-10-17T06:14:59;10.43;;;7.80;;
6019;SDS011;3038;51.122;6.840;2022-10-17T06:17:24;8.60;;;7.80;;
6019;SDS011;3038;51.122;6.840;2022-10-17T06:19:50;11.17;;;8.47;;
6019;SDS011;3038;51.122;6.840;2022-10-17T06:22:15;9.67;;;8.77;;
6019;SDS011;3038;51.122;6.840;2022-10-17T06:24:41;13.33;;;7.97;;
6019;SDS011;3038;51.122;6.840;2022-10-17T06:27:06;7.40;;;6.80;;
6019;SDS011;3038;51.122;6.840;2022-10-17T06:29:32;8.40;;;7.57;;
6019;SDS011;3038;51.122;6.840;2022-10-17T06:31:58;10.00;;;7.93;;
6019;SDS011;3038;51.122;6.840;2022-10-17T06:34:23;8.80;;;7.13;;
6019;SDS011;3038;51.122;6.840;2022-10-17T06:36:48;8.20;;;7.40;;
6019;SDS011;3038;51.122;6.840;2022-10-17T06:39:14;9.03;;;7.93;;
6019;SDS011;3038;51.122;6.840;2022-10-17T06:41:39;8.73;;;8.03;;
6019;SDS011;3038;51.122;6.840;2022-10-17T06:44:05;14.07;;;7.67;;
6019;SDS011;3038;51.122;6.840;2022-10-17T06:46:35;8.50;;;7.80;;
6019;SDS011;3038;51.122;6.840;2022-10-17T06:49:01;8.80;;;7.60;;
6019;SDS011;3038;51.122;6.840;2022-10-17T06:51:28;9.53;;;7.30;;
6019;SDS011;3038;51.122;6.840;2022-10-17T06:53:56;10.70;;;7.70;;
6019;SDS011;3038;51.122;6.840;2022-10-17T06:56:22;8.03;;;7.23;;
6019;SDS011;3038;51.122;6.840;2022-10-17T06:58:47;7.93;;;6.67;;
6019;SDS011;3038;51.122;6.840;2022-10-17T07:01:14;7.73;;;7.03;;
6019;SDS011;3038;51.122;6.840;2022-10-17T07:03:40;8.63;;;7.57;;
6019;SDS011;3038;51.122;6.840;2022-10-17T07:06:07;10.70;;;6.87;;
6019;SDS011;3038;51.122;6.840;2022-10-17T07:08:34;11.07;;;7.33;;
6019;SDS011;3038;51.122;6.840;2022-10-17T07:11:07;7.27;;;6.67;;
6019;SDS011;3038;51.122;6.840;2022-10-17T07:13:37;7.67;;;7.00;;
6019;SDS011;3038;51.122;6.840;2022-10-17T07:16:02;7.40;;;6.73;;
6019;SDS011;3038;51.122;6.840;2022-10-17T07:18:28;7.70;;;7.10;;
6019;SDS011;3038;51.122;6.840;2022-10-17T07:20:53;7.93;;;6.67;;
6019;SDS011;3038;51.122;6.840;2022-10-17T07:23:20;8.33;;;6.60;;
6019;SDS011;3038;51.122;6.840;2022-10-17T07:25:46;8.50;;;7.70;;
6019;SDS011;3038;51.122;6.840;2022-10-17T07:28:11;8.50;;;6.70;;
6019;SDS011;3038;51.122;6.840;2022-10-17T07:30:38;12.63;;;6.93;;
6019;SDS011;3038;51.122;6.840;2022-10-17T07:33:04;7.40;;;6.50;;
6019;SDS011;3038;51.122;6.840;2022-10-17T07:35:29;7.50;;;6.70;;
6019;SDS011;3038;51.122;6.840;2022-10-17T07:37:54;6.47;;;5.87;;
6019;SDS011;3038;51.122;6.840;2022-10-17T07:40:20;7.60;;;6.73;;
6019;SDS011;3038;51.122;6.840;2022-10-17T07:42:45;7.80;;;7.10;;
6019;SDS011;3038;51.122;6.840;2022-10-17T07:45:10;7.53;;;6.93;;
6019;SDS011;3038;51.122;6.840;2022-10-17T07:47:36;7.83;;;7.13;;
6019;SDS011;3038;51.122;6.840;2022-10-17T07:50:03;9.60;;;6.47;;
6019;SDS011;3038;51.122;6.840;2022-10-17T07:52:29;6.90;;;6.40;;
6019;SDS011;3038;51.122;6.840;2022-10-17T07:54:54;9.43;;;6.40;;
6019;SDS011;3038;51.122;6.840;2022-10-17T07:57:20;8.77;;;7.97;;
6019;SDS011;3038;51.122;6.840;2022-10-17T07:59:45;7.37;;;6.60;;
6019;SDS011;3038;51.122;6.840;2022-10-17T08:02:17;9.53;;;6.53;;
6019;SDS011;3038;51.122;6.840;2022-10-17T08:04:46;8.60;;;6.80;;
6019;SDS011;3038;51.122;6.840;2022-10-17T08:07:11;6.97;;;6.37;;
6019;SDS011;3038;51.122;6.840;2022-10-17T08:09:37;7.60;;;6.90;;
6019;SDS011;3038;51.122;6.840;2022-10-17T08:12:02;8.77;;;6.40;;
6019;SDS011;3038;51.122;6.840;2022-10-17T08:14:28;6.97;;;5.77;;
6019;SDS011;3038;51.122;6.840;2022-10-17T08:16:53;9.33;;;7.00;;
6019;SDS011;3038;51.122;6.840;2022-10-17T08:19:19;7.63;;;6.93;;
6019;SDS011;3038;51.122;6.840;2022-10-17T08:21:44;7.03;;;6.20;;
6019;SDS011;3038;51.122;6.840;2022-10-17T08:24:10;8.20;;;6.00;;
6019;SDS011;3038;51.122;6.840;2022-10-17T08:26:36;9.33;;;6.70;;
6019;SDS011;3038;51.122;6.840;2022-10-17T08:29:01;7.00;;;6.30;;
6019;SDS011;3038;51.122;6.840;2022-10-17T08:31:27;7.10;;;6.43;;
6019;SDS011;3038;51.122;6.840;2022-10-17T08:33:53;7.20;;;5.33;;
6019;SDS011;3038;51.122;6.840;2022-10-17T08:36:19;6.90;;;6.20;;
6019;SDS011;3038;51.122;6.840;2022-10-17T08:38:45;7.53;;;6.43;;
6019;SDS011;3038;51.122;6.840;2022-10-17T08:43:51;5.90;;;5.40;;
6019;SDS011;3038;51.122;6.840;2022-10-17T08:46:46;8.37;;;5.93;;
6019;SDS011;3038;51.122;6.840;2022-10-17T08:49:23;8.00;;;6.37;;
6019;SDS011;3038;51.122;6.840;2022-10-17T08:51:58;8.17;;;7.17;;
6019;SDS011;3038;51.122;6.840;2022-10-17T08:54:50;6.50;;;5.90;;
6019;SDS011;3038;51.122;6.840;2022-10-17T08:57:15;6.73;;;5.60;;
6019;SDS011;3038;51.122;6.840;2022-10-17T08:59:42;7.40;;;6.60;;
6019;SDS011;3038;51.122;6.840;2022-10-17T09:13:46;6.97;;;6.00;;
6019;SDS011;3038;51.122;6.840;2022-10-17T09:16:25;6.17;;;5.37;;
6019;SDS011;3038;51.122;6.840;2022-10-17T09:19:14;8.07;;;6.60;;
6019;SDS011;3038;51.122;6.840;2022-10-17T09:21:52;6.63;;;5.70;;
6019;SDS011;3038;51.122;6.840;2022-10-17T09:27:35;6.27;;;5.67;;
6019;SDS011;3038;51.122;6.840;2022-10-17T09:30:15;7.17;;;6.23;;
6019;SDS011;3038;51.122;6.840;2022-10-17T09:32:41;7.60;;;6.10;;
6019;SDS011;3038;51.122;6.840;2022-10-17T09:35:11;6.90;;;5.70;;
6019;SDS011;3038;51.122;6.840;2022-10-17T09:37:40;7.10;;;5.50;;
6019;SDS011;3038;51.122;6.840;2022-10-17T09:40:11;8.23;;;6.30;;
6019;SDS011;3038;51.122;6.840;2022-10-17T09:42:43;6.53;;;5.90;;
6019;SDS011;3038;51.122;6.840;2022-10-17T09:47:59;6.93;;;6.20;;
6019;SDS011;3038;51.122;6.840;2022-10-17T09:50:34;7.13;;;6.07;;
6019;SDS011;3038;51.122;6.840;2022-10-17T09:53:01;6.00;;;5.40;;
6019;SDS011;3038;51.122;6.840;2022-10-17T09:55:41;9.60;;;6.17;;
6019;SDS011;3038;51.122;6.840;2022-10-17T09:58:10;6.67;;;5.83;;
6019;SDS011;3038;51.122;6.840;2022-10-17T10:03:22;7.40;;;6.03;;
6019;SDS011;3038;51.122;6.840;2022-10-17T10:08:50;10.10;;;5.80;;
6019;SDS011;3038;51.122;6.840;2022-10-17T10:11:53;7.37;;;5.43;;
6019;SDS011;3038;51.122;6.840;2022-10-17T10:16:53;6.80;;;5.63;;
6019;SDS011;3038;51.122;6.840;2022-10-17T10:22:01;6.97;;;6.27;;
6019;SDS011;3038;51.122;6.840;2022-10-17T10:24:29;8.13;;;6.67;;
6019;SDS011;3038;51.122;6.840;2022-10-17T10:26:55;7.93;;;5.77;;
6019;SDS011;3038;51.122;6.840;2022-10-17T10:32:11;7.07;;;6.40;;
6019;SDS011;3038;51.122;6.840;2022-10-17T10:37:22;6.00;;;5.50;;
6019;SDS011;3038;51.122;6.840;2022-10-17T10:39:54;7.33;;;5.80;;
6019;SDS011;3038;51.122;6.840;2022-10-17T10:42:29;9.67;;;6.67;;
6019;SDS011;3038;51.122;6.840;2022-10-17T10:45:40;7.97;;;5.80;;
6019;SDS011;3038;51.122;6.840;2022-10-17T10:50:21;10.53;;;6.30;;
6019;SDS011;3038;51.122;6.840;2022-10-17T10:53:09;6.40;;;5.80;;
6019;SDS011;3038;51.122;6.840;2022-10-17T10:58:58;8.47;;;5.90;;
6019;SDS011;3038;51.122;6.840;2022-10-17T11:07:21;6.30;;;5.70;;
6019;SDS011;3038;51.122;6.840;2022-10-17T11:09:59;11.30;;;6.60;;
6019;SDS011;3038;51.122;6.840;2022-10-17T11:12:40;6.03;;;5.43;;
6019;SDS011;3038;51.122;6.840;2022-10-17T11:18:04;7.37;;;6.80;;
6019;SDS011;3038;51.122;6.840;2022-10-17T11:20:37;7.20;;;6.43;;
6019;SDS011;3038;51.122;6.840;2022-10-17T11:23:18;7.03;;;6.33;;
6019;SDS011;3038;51.122;6.840;2022-10-17T11:26:06;7.40;;;6.70;;
6019;SDS011;3038;51.122;6.840;2022-10-17T11:28:37;7.07;;;6.33;;
6019;SDS011;3038;51.122;6.840;2022-10-17T11:31:03;10.60;;;7.60;;
6019;SDS011;3038;51.122;6.840;2022-10-17T11:33:34;7.10;;;6.40;;
6019;SDS011;3038;51.122;6.840;2022-10-17T11:36:03;7.30;;;6.60;;
6019;SDS011;3038;51.122;6.840;2022-10-17T11:38:45;8.57;;;6.33;;
6019;SDS011;3038;51.122;6.840;2022-10-17T11:41:21;7.20;;;6.50;;
6019;SDS011;3038;51.122;6.840;2022-10-17T11:43:53;6.90;;;6.30;;
6019;SDS011;3038;51.122;6.840;2022-10-17T11:46:24;7.50;;;6.20;;
6019;SDS011;3038;51.122;6.840;2022-10-17T11:49:11;7.60;;;6.13;;
6019;SDS011;3038;51.122;6.840;2022-10-17T11:51:42;11.97;;;6.83;;
6019;SDS011;3038;51.122;6.840;2022-10-17T11:54:32;9.27;;;6.73;;
6019;SDS011;3038;51.122;6.840;2022-10-17T11:57:20;8.90;;;6.60;;
6019;SDS011;3038;51.122;6.840;2022-10-17T12:02:38;7.00;;;6.00;;
6019;SDS011;3038;51.122;6.840;2022-10-17T12:08:04;7.87;;;6.93;;
6019;SDS011;3038;51.122;6.840;2022-10-17T12:15:52;7.77;;;6.17;;
6019;SDS011;3038;51.122;6.840;2022-10-17T12:18:18;7.10;;;6.33;;
6019;SDS011;3038;51.122;6.840;2022-10-17T12:20:52;7.90;;;6.23;;
6019;SDS011;3038;51.122;6.840;2022-10-17T12:23:26;7.37;;;5.90;;
6019;SDS011;3038;51.122;6.840;2022-10-17T12:25:54;7.37;;;6.00;;
6019;SDS011;3038;51.122;6.840;2022-10-17T12:28:32;8.47;;;6.93;;
6019;SDS011;3038;51.122;6.840;2022-10-17T12:33:51;7.07;;;6.07;;
6019;SDS011;3038;51.122;6.840;2022-10-17T12:41:14;8.37;;;6.40;;
6019;SDS011;3038;51.122;6.840;2022-10-17T12:43:44;11.50;;;6.67;;
6019;SDS011;3038;51.122;6.840;2022-10-17T12:46:10;9.10;;;7.00;;
6019;SDS011;3038;51.122;6.840;2022-10-17T12:51:14;6.80;;;5.97;;
6019;SDS011;3038;51.122;6.840;2022-10-17T12:53:47;11.10;;;6.53;;
6019;SDS011;3038;51.122;6.840;2022-10-17T12:56:33;6.30;;;5.80;;
6019;SDS011;3038;51.122;6.840;2022-10-17T12:59:00;7.80;;;6.67;;
6019;SDS011;3038;51.122;6.840;2022-10-17T13:01:36;6.37;;;5.77;;
6019;SDS011;3038;51.122;6.840;2022-10-17T13:04:08;6.70;;;6.13;;
6019;SDS011;3038;51.122;6.840;2022-10-17T13:06:37;8.10;;;6.17;;
6019;SDS011;3038;51.122;6.840;2022-10-17T13:09:17;10.20;;;6.30;;
6019;SDS011;3038;51.122;6.840;2022-10-17T13:11:48;7.03;;;5.57;;
6019;SDS011;3038;51.122;6.840;2022-10-17T13:14:15;6.90;;;5.10;;
6019;SDS011;3038;51.122;6.840;2022-10-17T13:19:28;8.20;;;5.97;;
6019;SDS011;3038;51.122;6.840;2022-10-17T13:21:56;5.93;;;5.43;;
6019;SDS011;3038;51.122;6.840;2022-10-17T13:26:59;10.63;;;9.60;;
6019;SDS011;3038;51.122;6.840;2022-10-17T13:29:26;8.47;;;7.60;;
6019;SDS011;3038;51.122;6.840;2022-10-17T13:31:57;13.53;;;12.23;;
6019;SDS011;3038;51.122;6.840;2022-10-17T13:34:28;10.07;;;9.20;;
6019;SDS011;3038;51.122;6.840;2022-10-17T13:36:55;14.73;;;7.03;;
6019;SDS011;3038;51.122;6.840;2022-10-17T13:39:23;8.23;;;5.93;;
6019;SDS011;3038;51.122;6.840;2022-10-17T13:41:52;10.37;;;9.37;;
6019;SDS011;3038;51.122;6.840;2022-10-17T13:44:20;7.10;;;6.40;;
6019;SDS011;3038;51.122;6.840;2022-10-17T13:46:48;9.23;;;8.43;;
6019;SDS011;3038;51.122;6.840;2022-10-17T13:51:57;14.17;;;7.50;;
6019;SDS011;3038;51.122;6.840;2022-10-17T13:57:19;6.30;;;5.70;;
6019;SDS011;3038;51.122;6.840;2022-10-17T13:59:48;8.47;;;4.70;;
6019;SDS011;3038;51.122;6.840;2022-10-17T14:02:20;7.73;;;5.50;;
6019;SDS011;3038;51.122;6.840;2022-10-17T14:04:58;7.27;;;5.57;;
6019;SDS011;3038;51.122;6.840;2022-10-17T14:07:39;6.17;;;4.87;;
6019;SDS011;3038;51.122;6.840;2022-10-17T14:10:26;10.60;;;5.37;;
6019;SDS011;3038;51.122;6.840;2022-10-17T14:12:54;5.30;;;4.43;;
6019;SDS011;3038;51.122;6.840;2022-10-17T14:15:21;5.50;;;4.67;;
6019;SDS011;3038;51.122;6.840;2022-10-17T14:18:05;5.63;;;5.00;;
6019;SDS011;3038;51.122;6.840;2022-10-17T14:20:33;6.27;;;5.43;;
6019;SDS011;3038;51.122;6.840;2022-10-17T14:22:59;7.30;;;5.27;;
6019;SDS011;3038;51.122;6.840;2022-10-17T14:25:35;7.93;;;4.97;;
6019;SDS011;3038;51.122;6.840;2022-10-17T14:30:45;7.70;;;3.90;;
6019;SDS011;3038;51.122;6.840;2022-10-17T14:33:12;7.63;;;4.67;;
6019;SDS011;3038;51.122;6.840;2022-10-17T14:35:52;6.50;;;5.10;;
6019;SDS011;3038;51.122;6.840;2022-10-17T14:38:19;5.93;;;4.40;;
6019;SDS011;3038;51.122;6.840;2022-10-17T14:40:49;7.97;;;5.13;;
6019;SDS011;3038;51.122;6.840;2022-10-17T14:43:21;5.50;;;4.10;;
6019;SDS011;3038;51.122;6.840;2022-10-17T14:45:49;6.33;;;4.57;;
6019;SDS011;3038;51.122;6.840;2022-10-17T14:48:19;7.13;;;4.47;;
6019;SDS011;3038;51.122;6.840;2022-10-17T14:53:39;9.80;;;4.97;;
6019;SDS011;3038;51.122;6.840;2022-10-17T14:56:25;7.43;;;5.00;;
6019;SDS011;3038;51.122;6.840;2022-10-17T14:58:52;6.67;;;4.33;;
6019;SDS011;3038;51.122;6.840;2022-10-17T15:01:18;7.73;;;5.27;;
6019;SDS011;3038;51.122;6.840;2022-10-17T15:03:43;4.50;;;4.10;;
6019;SDS011;3038;51.122;6.840;2022-10-17T15:06:19;8.63;;;5.03;;
6019;SDS011;3038;51.122;6.840;2022-10-17T15:08:47;10.03;;;5.03;;
6019;SDS011;3038;51.122;6.840;2022-10-17T15:11:13;9.77;;;5.30;;
6019;SDS011;3038;51.122;6.840;2022-10-17T15:13:38;7.87;;;4.47;;
6019;SDS011;3038;51.122;6.840;2022-10-17T15:18:54;7.03;;;4.30;;
6019;SDS011;3038;51.122;6.840;2022-10-17T15:21:20;10.37;;;5.10;;
6019;SDS011;3038;51.122;6.840;2022-10-17T15:23:47;7.77;;;4.63;;
6019;SDS011;3038;51.122;6.840;2022-10-17T15:26:14;7.10;;;4.90;;
6019;SDS011;3038;51.122;6.840;2022-10-17T15:28:44;7.83;;;5.40;;
6019;SDS011;3038;51.122;6.840;2022-10-17T15:31:12;8.10;;;5.50;;
6019;SDS011;3038;51.122;6.840;2022-10-17T15:33:39;5.10;;;4.60;;
6019;SDS011;3038;51.122;6.840;2022-10-17T15:36:15;5.60;;;4.43;;
6019;SDS011;3038;51.122;6.840;2022-10-17T15:38:44;8.63;;;5.97;;
6019;SDS011;3038;51.122;6.840;2022-10-17T15:41:10;7.23;;;4.63;;
6019;SDS011;3038;51.122;6.840;2022-10-17T15:43:35;8.03;;;5.03;;
6019;SDS011;3038;51.122;6.840;2022-10-17T15:46:00;7.13;;;5.03;;
6019;SDS011;3038;51.122;6.840;2022-10-17T15:48:27;6.97;;;4.83;;
6019;SDS011;3038;51.122;6.840;2022-10-17T15:50:55;5.20;;;4.70;;
6019;SDS011;3038;51.122;6.840;2022-10-17T15:53:20;12.30;;;5.33;;
6019;SDS011;3038;51.122;6.840;2022-10-17T15:55:46;7.13;;;5.53;;
6019;SDS011;3038;51.122;6.840;2022-10-17T15:58:14;8.40;;;6.10;;
6019;SDS011;3038;51.122;6.840;2022-10-17T16:00:42;6.30;;;5.13;;
6019;SDS011;3038;51.122;6.840;2022-10-17T16:03:08;5.50;;;5.00;;
6019;SDS011;3038;51.122;6.840;2022-10-17T16:05:33;7.50;;;5.83;;
6019;SDS011;3038;51.122;6.840;2022-10-17T16:07:59;6.60;;;5.90;;
6019;SDS011;3038;51.122;6.840;2022-10-17T16:10:24;8.70;;;6.67;;
6019;SDS011;3038;51.122;6.840;2022-10-17T16:12:50;10.87;;;6.83;;
6019;SDS011;3038;51.122;6.840;2022-10-17T16:15:19;7.90;;;7.20;;
6019;SDS011;3038;51.122;6.840;2022-10-17T16:17:53;7.77;;;6.97;;
6019;SDS011;3038;51.122;6.840;2022-10-17T16:20:20;8.13;;;7.53;;
6019;SDS011;3038;51.122;6.840;2022-10-17T16:22:46;11.70;;;7.07;;
6019;SDS011;3038;51.122;6.840;2022-10-17T16:25:23;12.13;;;8.10;;
6019;SDS011;3038;51.122;6.840;2022-10-17T16:27:52;10.67;;;7.33;;
6019;SDS011;3038;51.122;6.840;2022-10-17T16:30:19;12.27;;;7.67;;
6019;SDS011;3038;51.122;6.840;2022-10-17T16:32:45;7.43;;;6.73;;
6019;SDS011;3038;51.122;6.840;2022-10-17T16:35:21;9.90;;;7.10;;
6019;SDS011;3038;51.122;6.840;2022-10-17T16:37:49;8.97;;;7.03;;
6019;SDS011;3038;51.122;6.840;2022-10-17T16:40:15;7.97;;;7.33;;
6019;SDS011;3038;51.122;6.840;2022-10-17T16:42:40;12.67;;;8.00;;
6019;SDS011;3038;51.122;6.840;2022-10-17T16:45:06;9.40;;;8.63;;
6019;SDS011;3038;51.122;6.840;2022-10-17T16:47:32;8.87;;;7.97;;
6019;SDS011;3038;51.122;6.840;2022-10-17T16:49:57;8.20;;;7.40;;
6019;SDS011;3038;51.122;6.840;2022-10-17T16:52:23;22.73;;;8.97;;
6019;SDS011;3038;51.122;6.840;2022-10-17T16:54:48;9.33;;;8.40;;
6019;SDS011;3038;51.122;6.840;2022-10-17T16:57:14;11.30;;;7.90;;
6019;SDS011;3038;51.122;6.840;2022-10-17T16:59:40;9.73;;;8.73;;
6019;SDS011;3038;51.122;6.840;2022-10-17T17:02:05;13.40;;;11.20;;
6019;SDS011;3038;51.122;6.840;2022-10-17T17:04:31;9.53;;;8.53;;
6019;SDS011;3038;51.122;6.840;2022-10-17T17:06:56;10.67;;;9.57;;
6019;SDS011;3038;51.122;6.840;2022-10-17T17:09:22;10.67;;;9.67;;
6019;SDS011;3038;51.122;6.840;2022-10-17T17:11:47;10.07;;;8.80;;
6019;SDS011;3038;51.122;6.840;2022-10-17T17:14:13;13.37;;;8.93;;
6019;SDS011;3038;51.122;6.840;2022-10-17T17:16:38;12.53;;;8.93;;
6019;SDS011;3038;51.122;6.840;2022-10-17T17:19:05;12.50;;;9.20;;
6019;SDS011;3038;51.122;6.840;2022-10-17T17:21:32;14.40;;;8.40;;